DECNA EDDG-EDDW
Flight info
| Callsign | DECNA |
|---|---|
| Flight time | N/A |
| Altitude | 4000 |
| Route | DCT EDDV DCT |
| Aircraft | C172/L-SDE3FGHIRWY/S |
Departure
| Time | 2026-04-24 19:45 |
|---|---|
| Airport | Münster Osnabrück Airport (EDDG) |
Arrival
| Time | N/A |
|---|---|
| Airport | Bremen Airport (EDDW) |
| Time | Latitude | Longitude | Altitude | Speed | Heading |
|---|---|---|---|---|---|
| 2026-04-24 19:29 | 52.13656 | 7.67901 | 162 ft | 0 kts | 178° |
| 2026-04-24 19:33 | 52.13655 | 7.67901 | 162 ft | 0 kts | 178° |
| 2026-04-24 19:40 | 52.13639 | 7.67901 | 159 ft | 5 kts | 201° |
| 2026-04-24 19:41 | 52.13637 | 7.67900 | 159 ft | 0 kts | 210° |
| 2026-04-24 19:41 | 52.13633 | 7.67900 | 158 ft | 5 kts | 154° |
| 2026-04-24 19:41 | 52.13636 | 7.67951 | 157 ft | 8 kts | 88° |
| 2026-04-24 19:41 | 52.13660 | 7.68095 | 157 ft | 11 kts | 70° |
| 2026-04-24 19:42 | 52.13677 | 7.68178 | 155 ft | 10 kts | 71° |
| 2026-04-24 19:42 | 52.13703 | 7.68289 | 155 ft | 10 kts | 69° |
| 2026-04-24 19:42 | 52.13688 | 7.68377 | 154 ft | 10 kts | 185° |
| 2026-04-24 19:42 | 52.13673 | 7.68354 | 154 ft | 0 kts | 247° |
| 2026-04-24 19:44 | 52.13630 | 7.68156 | 157 ft | 42 kts | 250° |
| 2026-04-24 19:44 | 52.13491 | 7.67546 | 218 ft | 63 kts | 262° |
| 2026-04-24 19:44 | 52.13318 | 7.66879 | 364 ft | 66 kts | 252° |
| 2026-04-24 19:44 | 52.13099 | 7.66224 | 570 ft | 67 kts | 233° |
| 2026-04-24 19:45 | 52.12599 | 7.66191 | 688 ft | 80 kts | 165° |
| 2026-04-24 19:45 | 52.12099 | 7.66564 | 874 ft | 80 kts | 126° |
| 2026-04-24 19:45 | 52.11788 | 7.67375 | 977 ft | 87 kts | 114° |
| 2026-04-24 19:45 | 52.11617 | 7.68298 | 1099 ft | 84 kts | 94° |
| 2026-04-24 19:46 | 52.11575 | 7.69233 | 1218 ft | 81 kts | 83° |
| 2026-04-24 19:46 | 52.11593 | 7.70156 | 1322 ft | 82 kts | 77° |
| 2026-04-24 19:46 | 52.11671 | 7.71090 | 1466 ft | 83 kts | 75° |
| 2026-04-24 19:46 | 52.11764 | 7.72009 | 1545 ft | 84 kts | 76° |
| 2026-04-24 19:47 | 52.11833 | 7.73083 | 1615 ft | 104 kts | 78° |
| 2026-04-24 19:47 | 52.11917 | 7.74324 | 1725 ft | 115 kts | 82° |
| 2026-04-24 19:47 | 52.11952 | 7.75626 | 1845 ft | 117 kts | 86° |
| 2026-04-24 19:47 | 52.11906 | 7.76966 | 1983 ft | 121 kts | 91° |
| 2026-04-24 19:48 | 52.11825 | 7.78369 | 2086 ft | 125 kts | 92° |
| 2026-04-24 19:48 | 52.11722 | 7.79742 | 2130 ft | 122 kts | 96° |
| 2026-04-24 19:48 | 52.11314 | 7.82384 | 2099 ft | 121 kts | 107° |
| 2026-04-24 19:49 | 52.10755 | 7.84983 | 2077 ft | 122 kts | 100° |
| 2026-04-24 19:49 | 52.10343 | 7.87658 | 2183 ft | 121 kts | 99° |
| 2026-04-24 19:50 | 52.09751 | 7.91674 | 2040 ft | 123 kts | 100° |
| 2026-04-24 19:50 | 52.09547 | 7.93022 | 2073 ft | 124 kts | 101° |
| 2026-04-24 19:51 | 52.09126 | 7.95730 | 2156 ft | 120 kts | 101° |
| 2026-04-24 19:51 | 52.08938 | 7.97038 | 2185 ft | 117 kts | 100° |
| 2026-04-24 19:52 | 52.08581 | 7.99722 | 2155 ft | 122 kts | 82° |
| 2026-04-24 19:52 | 52.08702 | 8.01088 | 2140 ft | 121 kts | 78° |
| 2026-04-24 19:52 | 52.08816 | 8.02456 | 2148 ft | 123 kts | 78° |
| 2026-04-24 19:52 | 52.08935 | 8.03810 | 2140 ft | 121 kts | 77° |
| 2026-04-24 19:53 | 52.09054 | 8.05137 | 2143 ft | 118 kts | 77° |
| 2026-04-24 19:53 | 52.09160 | 8.06452 | 2149 ft | 120 kts | 78° |
| 2026-04-24 19:53 | 52.09388 | 8.09079 | 2152 ft | 121 kts | 77° |
| 2026-04-24 19:54 | 52.09499 | 8.10460 | 2161 ft | 124 kts | 78° |
| 2026-04-24 19:54 | 52.09617 | 8.11855 | 2166 ft | 120 kts | 78° |
| 2026-04-24 19:54 | 52.09722 | 8.13206 | 2129 ft | 123 kts | 78° |
| 2026-04-24 19:54 | 52.09841 | 8.14568 | 2143 ft | 119 kts | 78° |
| 2026-04-24 19:55 | 52.09909 | 8.15455 | 2144 ft | 116 kts | 78° |
| 2026-04-24 19:55 | 52.10050 | 8.17131 | 2160 ft | 113 kts | 77° |
| 2026-04-24 19:55 | 52.10149 | 8.18391 | 2156 ft | 111 kts | 77° |
| 2026-04-24 19:55 | 52.10242 | 8.19612 | 2149 ft | 107 kts | 78° |
| 2026-04-24 19:56 | 52.10246 | 8.20898 | 2160 ft | 118 kts | 100° |
| 2026-04-24 19:56 | 52.10201 | 8.22190 | 2147 ft | 112 kts | 75° |
| 2026-04-24 19:56 | 52.10329 | 8.23469 | 2169 ft | 118 kts | 77° |
| 2026-04-24 19:56 | 52.10455 | 8.24783 | 2118 ft | 115 kts | 77° |
| 2026-04-24 19:57 | 52.10582 | 8.26028 | 2262 ft | 110 kts | 79° |
| 2026-04-24 19:57 | 52.10691 | 8.27255 | 2299 ft | 108 kts | 76° |
| 2026-04-24 19:57 | 52.10802 | 8.28404 | 2298 ft | 107 kts | 79° |
| 2026-04-24 19:57 | 52.10941 | 8.29555 | 2332 ft | 100 kts | 76° |
| 2026-04-24 19:58 | 52.11034 | 8.30640 | 2455 ft | 97 kts | 77° |
| 2026-04-24 19:58 | 52.11123 | 8.31719 | 2576 ft | 96 kts | 77° |
| 2026-04-24 19:58 | 52.11221 | 8.32793 | 2698 ft | 95 kts | 77° |
| 2026-04-24 19:58 | 52.11305 | 8.33846 | 2825 ft | 94 kts | 77° |
| 2026-04-24 19:59 | 52.11384 | 8.34908 | 2951 ft | 95 kts | 76° |
| 2026-04-24 19:59 | 52.11463 | 8.35971 | 3077 ft | 95 kts | 76° |
| 2026-04-24 19:59 | 52.11547 | 8.37037 | 3200 ft | 93 kts | 68° |
| 2026-04-24 19:59 | 52.11765 | 8.38024 | 3327 ft | 92 kts | 63° |
| 2026-04-24 20:00 | 52.11959 | 8.38996 | 3447 ft | 90 kts | 62° |
| 2026-04-24 20:00 | 52.12144 | 8.39963 | 3567 ft | 89 kts | 63° |
| 2026-04-24 20:00 | 52.12322 | 8.40914 | 3695 ft | 89 kts | 62° |
| 2026-04-24 20:00 | 52.12499 | 8.41874 | 3816 ft | 88 kts | 63° |
| 2026-04-24 20:01 | 52.12675 | 8.42823 | 3941 ft | 88 kts | 63° |
| 2026-04-24 20:01 | 52.12857 | 8.43791 | 4076 ft | 92 kts | 63° |
| 2026-04-24 20:01 | 52.13052 | 8.44803 | 4211 ft | 96 kts | 63° |
| 2026-04-24 20:01 | 52.13254 | 8.45854 | 4343 ft | 99 kts | 63° |
| 2026-04-24 20:02 | 52.13389 | 8.46567 | 4428 ft | 100 kts | 63° |
| 2026-04-24 20:02 | 52.13677 | 8.48036 | 4602 ft | 103 kts | 63° |
| 2026-04-24 20:02 | 52.13896 | 8.49150 | 4728 ft | 104 kts | 63° |
| 2026-04-24 20:02 | 52.14073 | 8.50301 | 4853 ft | 109 kts | 78° |
| 2026-04-24 20:03 | 52.14082 | 8.51537 | 4981 ft | 109 kts | 79° |
| 2026-04-24 20:03 | 52.14090 | 8.52773 | 5104 ft | 109 kts | 79° |
| 2026-04-24 20:03 | 52.14096 | 8.54000 | 5226 ft | 108 kts | 80° |
| 2026-04-24 20:03 | 52.14065 | 8.55296 | 5225 ft | 119 kts | 84° |
| 2026-04-24 20:04 | 52.14035 | 8.56678 | 5225 ft | 124 kts | 84° |
| 2026-04-24 20:04 | 52.14009 | 8.58103 | 5225 ft | 127 kts | 84° |
| 2026-04-24 20:04 | 52.13990 | 8.59534 | 5221 ft | 127 kts | 79° |
| 2026-04-24 20:04 | 52.14152 | 8.60897 | 5239 ft | 123 kts | 70° |
| 2026-04-24 20:05 | 52.14329 | 8.62249 | 5259 ft | 121 kts | 70° |
| 2026-04-24 20:05 | 52.14524 | 8.63424 | 5267 ft | 119 kts | 60° |
| 2026-04-24 20:05 | 52.15000 | 8.64457 | 5291 ft | 114 kts | 55° |
| 2026-04-24 20:05 | 52.15212 | 8.65756 | 5263 ft | 123 kts | 70° |
| 2026-04-24 20:06 | 52.15398 | 8.67114 | 5264 ft | 123 kts | 70° |
| 2026-04-24 20:06 | 52.15579 | 8.68468 | 5262 ft | 123 kts | 70° |
| 2026-04-24 20:06 | 52.15762 | 8.69837 | 5264 ft | 124 kts | 70° |
| 2026-04-24 20:06 | 52.15973 | 8.71190 | 5262 ft | 123 kts | 66° |
| 2026-04-24 20:07 | 52.16132 | 8.72071 | 5263 ft | 123 kts | 66° |
| 2026-04-24 20:07 | 52.16452 | 8.73834 | 5260 ft | 122 kts | 66° |
| 2026-04-24 20:07 | 52.16691 | 8.75167 | 5260 ft | 121 kts | 66° |
| 2026-04-24 20:07 | 52.16929 | 8.76494 | 5261 ft | 122 kts | 66° |
| 2026-04-24 20:08 | 52.17162 | 8.77795 | 5351 ft | 116 kts | 66° |
| 2026-04-24 20:08 | 52.17382 | 8.79035 | 5468 ft | 112 kts | 66° |
| 2026-04-24 20:08 | 52.17601 | 8.80264 | 5441 ft | 121 kts | 66° |
| 2026-04-24 20:08 | 52.17844 | 8.81589 | 5460 ft | 120 kts | 65° |
| 2026-04-24 20:09 | 52.18079 | 8.82898 | 5460 ft | 121 kts | 66° |
| 2026-04-24 20:09 | 52.18324 | 8.84237 | 5383 ft | 127 kts | 66° |
| 2026-04-24 20:09 | 52.18585 | 8.85645 | 5281 ft | 129 kts | 66° |
| 2026-04-24 20:09 | 52.18838 | 8.87012 | 5279 ft | 125 kts | 66° |
| 2026-04-24 20:10 | 52.19087 | 8.88361 | 5272 ft | 124 kts | 66° |
| 2026-04-24 20:10 | 52.19332 | 8.89717 | 5273 ft | 125 kts | 66° |
| 2026-04-24 20:10 | 52.19568 | 8.91078 | 5258 ft | 124 kts | 66° |
| 2026-04-24 20:10 | 52.19798 | 8.92433 | 5256 ft | 124 kts | 66° |
| 2026-04-24 20:11 | 52.20025 | 8.93782 | 5254 ft | 122 kts | 66° |
| 2026-04-24 20:11 | 52.20249 | 8.95111 | 5253 ft | 122 kts | 66° |
| 2026-04-24 20:11 | 52.20475 | 8.96440 | 5253 ft | 121 kts | 66° |
| 2026-04-24 20:11 | 52.20699 | 8.97786 | 5251 ft | 121 kts | 66° |
| 2026-04-24 20:12 | 52.20919 | 8.99116 | 5251 ft | 121 kts | 66° |
| 2026-04-24 20:12 | 52.21140 | 9.00443 | 5251 ft | 122 kts | 66° |
| 2026-04-24 20:12 | 52.21360 | 9.01774 | 5251 ft | 121 kts | 66° |
| 2026-04-24 20:12 | 52.21578 | 9.03098 | 5250 ft | 121 kts | 66° |
| 2026-04-24 20:13 | 52.21793 | 9.04421 | 5247 ft | 120 kts | 66° |
| 2026-04-24 20:13 | 52.22012 | 9.05726 | 5249 ft | 119 kts | 65° |
| 2026-04-24 20:13 | 52.22234 | 9.07057 | 5254 ft | 123 kts | 66° |
| 2026-04-24 20:13 | 52.22462 | 9.08404 | 5255 ft | 124 kts | 66° |
| 2026-04-24 20:14 | 52.22686 | 9.09760 | 5255 ft | 124 kts | 66° |
| 2026-04-24 20:14 | 52.22912 | 9.11114 | 5254 ft | 123 kts | 66° |
| 2026-04-24 20:14 | 52.23139 | 9.12458 | 5254 ft | 123 kts | 66° |
| 2026-04-24 20:14 | 52.23368 | 9.13811 | 5250 ft | 122 kts | 66° |
| 2026-04-24 20:15 | 52.23592 | 9.15136 | 5248 ft | 121 kts | 66° |
| 2026-04-24 20:15 | 52.23801 | 9.16458 | 5248 ft | 121 kts | 66° |
| 2026-04-24 20:15 | 52.24012 | 9.17774 | 5249 ft | 122 kts | 66° |
| 2026-04-24 20:15 | 52.24226 | 9.19118 | 5250 ft | 122 kts | 66° |
| 2026-04-24 20:16 | 52.24447 | 9.20433 | 5248 ft | 121 kts | 66° |
| 2026-04-24 20:16 | 52.24672 | 9.21775 | 5377 ft | 121 kts | 66° |
| 2026-04-24 20:16 | 52.24891 | 9.23107 | 5376 ft | 122 kts | 65° |
| 2026-04-24 20:16 | 52.25107 | 9.24437 | 5375 ft | 119 kts | 64° |
| 2026-04-24 20:17 | 52.25342 | 9.25643 | 5373 ft | 108 kts | 62° |
| 2026-04-24 20:17 | 52.25929 | 9.27884 | 5369 ft | 106 kts | 56° |
| 2026-04-24 20:17 | 52.26229 | 9.28967 | 5370 ft | 107 kts | 56° |
| 2026-04-24 20:18 | 52.26434 | 9.29715 | 5366 ft | 108 kts | 56° |
| 2026-04-24 20:18 | 52.26881 | 9.31291 | 5115 ft | 123 kts | 56° |
| 2026-04-24 20:18 | 52.27251 | 9.32590 | 4876 ft | 128 kts | 56° |
| 2026-04-24 20:18 | 52.27605 | 9.33853 | 4605 ft | 116 kts | 56° |
| 2026-04-24 20:19 | 52.27926 | 9.35029 | 4382 ft | 108 kts | 56° |
| 2026-04-24 20:19 | 52.28220 | 9.36118 | 4371 ft | 98 kts | 50° |
| 2026-04-24 20:19 | 52.28651 | 9.36892 | 4379 ft | 91 kts | 37° |
| 2026-04-24 20:19 | 52.29115 | 9.37536 | 4377 ft | 88 kts | 30° |
| 2026-04-24 20:20 | 52.29624 | 9.38197 | 4235 ft | 96 kts | 30° |
| 2026-04-24 20:20 | 52.30171 | 9.38885 | 4092 ft | 102 kts | 30° |
| 2026-04-24 20:20 | 52.30551 | 9.39353 | 4004 ft | 105 kts | 30° |
| 2026-04-24 20:20 | 52.31118 | 9.40064 | 3845 ft | 98 kts | 30° |
| 2026-04-24 20:21 | 52.31639 | 9.40729 | 3675 ft | 93 kts | 30° |
| 2026-04-24 20:21 | 52.32137 | 9.41367 | 3521 ft | 89 kts | 30° |
| 2026-04-24 20:21 | 52.32467 | 9.41797 | 3414 ft | 88 kts | 30° |
| 2026-04-24 20:21 | 52.33145 | 9.42389 | 3242 ft | 85 kts | 16° |
| 2026-04-24 20:22 | 52.33898 | 9.42876 | 3014 ft | 91 kts | 16° |
| 2026-04-24 20:22 | 52.34306 | 9.43145 | 2895 ft | 93 kts | 16° |
| 2026-04-24 20:22 | 52.34895 | 9.43540 | 2764 ft | 93 kts | 16° |
| 2026-04-24 20:22 | 52.35493 | 9.43945 | 2634 ft | 93 kts | 16° |
| 2026-04-24 20:23 | 52.36091 | 9.44349 | 2500 ft | 93 kts | 16° |
| 2026-04-24 20:23 | 52.36690 | 9.44763 | 2369 ft | 94 kts | 16° |
| 2026-04-24 20:23 | 52.37287 | 9.45184 | 2241 ft | 95 kts | 16° |
| 2026-04-24 20:23 | 52.37894 | 9.45625 | 2113 ft | 97 kts | 16° |
| 2026-04-24 20:24 | 52.38519 | 9.46088 | 1990 ft | 99 kts | 20° |
| 2026-04-24 20:24 | 52.39094 | 9.46750 | 1869 ft | 101 kts | 25° |
| 2026-04-24 20:24 | 52.39618 | 9.47559 | 1743 ft | 107 kts | 40° |
| 2026-04-24 20:24 | 52.40108 | 9.48483 | 1609 ft | 109 kts | 42° |
| 2026-04-24 20:25 | 52.40532 | 9.49543 | 1483 ft | 113 kts | 54° |
| 2026-04-24 20:25 | 52.40894 | 9.50682 | 1356 ft | 114 kts | 63° |
| 2026-04-24 20:25 | 52.41144 | 9.51921 | 1227 ft | 115 kts | 67° |
| 2026-04-24 20:25 | 52.41362 | 9.53191 | 1095 ft | 116 kts | 68° |
| 2026-04-24 20:26 | 52.41599 | 9.54452 | 964 ft | 114 kts | 67° |
| 2026-04-24 20:26 | 52.41820 | 9.55612 | 952 ft | 103 kts | 67° |
| 2026-04-24 20:26 | 52.42023 | 9.56703 | 979 ft | 99 kts | 66° |
| 2026-04-24 20:26 | 52.42206 | 9.57769 | 981 ft | 92 kts | 66° |
| 2026-04-24 20:27 | 52.42382 | 9.58741 | 983 ft | 88 kts | 66° |
| 2026-04-24 20:27 | 52.42549 | 9.59719 | 983 ft | 90 kts | 68° |
| 2026-04-24 20:27 | 52.42714 | 9.60696 | 982 ft | 87 kts | 68° |
| 2026-04-24 20:27 | 52.42746 | 9.61670 | 979 ft | 86 kts | 91° |
| 2026-04-24 20:28 | 52.42708 | 9.62639 | 1002 ft | 87 kts | 91° |
| 2026-04-24 20:28 | 52.42662 | 9.63721 | 1012 ft | 102 kts | 89° |
| 2026-04-24 20:28 | 52.42610 | 9.64920 | 1001 ft | 111 kts | 89° |
| 2026-04-24 20:28 | 52.42610 | 9.66214 | 1002 ft | 115 kts | 86° |
| 2026-04-24 20:29 | 52.42609 | 9.67115 | 1003 ft | 119 kts | 86° |
| 2026-04-24 20:29 | 52.42631 | 9.68996 | 962 ft | 117 kts | 84° |
| 2026-04-24 20:29 | 52.42687 | 9.70245 | 927 ft | 108 kts | 80° |
| 2026-04-24 20:29 | 52.42783 | 9.71454 | 954 ft | 102 kts | 72° |
| 2026-04-24 20:30 | 52.43184 | 9.72260 | 936 ft | 89 kts | 18° |
| 2026-04-24 20:30 | 52.43764 | 9.72549 | 820 ft | 87 kts | 12° |
| 2026-04-24 20:30 | 52.44349 | 9.72889 | 708 ft | 89 kts | 12° |
| 2026-04-24 20:30 | 52.44921 | 9.72954 | 660 ft | 75 kts | 330° |
| 2026-04-24 20:31 | 52.45292 | 9.72326 | 517 ft | 76 kts | 296° |
| 2026-04-24 20:31 | 52.45373 | 9.71591 | 314 ft | 60 kts | 280° |
| 2026-04-24 20:31 | 52.45397 | 9.70935 | 199 ft | 55 kts | 277° |